createdAt,value
2022-09-13T02:50:36.649Z,49.57
2022-09-13T02:53:06.817Z,49.56
2022-09-13T02:55:40.468Z,49.32
2022-09-13T02:58:11.060Z,49.58
2022-09-13T03:00:39.032Z,49.38
2022-09-13T03:03:08.208Z,49.34
2022-09-13T03:05:35.788Z,49.36
2022-09-13T03:08:03.552Z,49.49
2022-09-13T03:10:33.289Z,49.32
2022-09-13T03:13:15.176Z,49.43
2022-09-13T03:15:52.512Z,49.36
2022-09-13T03:18:29.606Z,49.29
2022-09-13T03:21:00.970Z,49.39
2022-09-13T03:23:42.992Z,49.41
2022-09-13T03:26:24.781Z,49.26
2022-09-13T03:29:00.493Z,49.16
2022-09-13T03:31:30.357Z,49.19
2022-09-13T03:33:59.027Z,49.27
2022-09-13T03:36:28.260Z,49.08
2022-09-13T03:38:57.513Z,49.10
2022-09-13T03:41:26.998Z,49.29
2022-09-13T03:43:57.882Z,48.97
2022-09-13T03:46:28.167Z,49.20
2022-09-13T03:48:55.698Z,48.96
2022-09-13T03:51:23.343Z,48.93
2022-09-13T03:53:53.844Z,49.01
2022-09-13T03:56:21.642Z,48.94
2022-09-13T03:58:49.399Z,48.72
2022-09-13T04:01:20.833Z,48.90
2022-09-13T04:03:48.420Z,48.73
2022-09-13T04:06:15.940Z,48.80
2022-09-13T04:08:43.525Z,48.65
2022-09-13T04:11:11.413Z,48.59
2022-09-13T04:13:39.166Z,48.74
2022-09-13T04:16:07.359Z,48.89
2022-09-13T04:18:36.571Z,48.62
2022-09-13T04:21:04.570Z,48.59
2022-09-13T04:23:32.238Z,48.58
2022-09-13T04:26:03.085Z,48.60
2022-09-13T04:28:30.826Z,48.36
2022-09-13T04:30:58.378Z,48.38
2022-09-13T04:33:25.925Z,48.27
2022-09-13T04:36:00.329Z,48.31
2022-09-13T04:38:28.069Z,48.19
2022-09-13T04:40:55.666Z,48.39
2022-09-13T04:43:23.277Z,48.11
2022-09-13T04:45:50.997Z,47.97
2022-09-13T04:48:18.596Z,48.08
2022-09-13T04:50:46.148Z,48.29
2022-09-13T04:53:15.005Z,48.17
2022-09-13T04:55:42.556Z,48.20
2022-09-13T04:58:10.159Z,48.10
2022-09-13T05:00:37.821Z,48.16
2022-09-13T05:03:05.373Z,48.31
2022-09-13T05:05:33.257Z,47.88
2022-09-13T05:08:00.813Z,48.30
2022-09-13T05:10:29.722Z,48.30
2022-09-13T05:12:57.243Z,48.61
2022-09-13T05:15:24.809Z,48.57
2022-09-13T05:17:52.435Z,48.68
2022-09-13T05:20:19.960Z,48.77
2022-09-13T05:22:47.490Z,48.67
2022-09-13T05:25:15.376Z,48.83
2022-09-13T05:27:45.960Z,48.89
2022-09-13T05:30:14.659Z,48.89
2022-09-13T05:32:42.189Z,48.88
2022-09-13T05:35:10.361Z,48.78
2022-09-13T05:37:37.913Z,48.85
2022-09-13T05:40:13.592Z,49.01
2022-09-13T05:42:41.199Z,48.82
2022-09-13T05:45:10.594Z,48.94
2022-09-13T05:47:38.256Z,48.86
2022-09-13T05:50:13.539Z,48.86
2022-09-13T05:52:46.896Z,48.88
2022-09-13T05:55:14.768Z,48.83
2022-09-13T05:57:42.404Z,48.84
2022-09-13T06:00:12.659Z,48.99
2022-09-13T06:02:40.225Z,48.89
2022-09-13T06:05:08.464Z,48.84
2022-09-13T06:07:36.023Z,48.94
2022-09-13T06:10:04.741Z,49.04
2022-09-13T06:12:32.414Z,48.97
2022-09-13T06:14:59.937Z,49.04
2022-09-13T06:17:28.849Z,48.97
2022-09-13T06:19:56.932Z,48.99
2022-09-13T06:22:24.493Z,49.02
2022-09-13T06:24:52.089Z,49.07
2022-09-13T06:27:19.617Z,48.96
2022-09-13T06:29:47.304Z,49.04
2022-09-13T06:32:14.830Z,49.08
2022-09-13T06:34:43.708Z,49.02
2022-09-13T06:37:11.310Z,49.06
2022-09-13T06:39:38.873Z,49.20
2022-09-13T06:42:06.761Z,49.15
2022-09-13T06:44:34.321Z,49.22
2022-09-13T06:47:01.856Z,49.13
2022-09-13T06:49:31.445Z,49.12
2022-09-13T06:52:00.316Z,49.26
2022-09-13T06:54:27.837Z,49.29
2022-09-13T06:56:55.378Z,49.32
2022-09-13T06:59:22.997Z,49.34
2022-09-13T07:01:50.607Z,49.35
2022-09-13T07:04:19.332Z,49.26
2022-09-13T07:06:47.953Z,49.23
2022-09-13T07:09:18.214Z,49.44
2022-09-13T07:11:46.992Z,49.40
2022-09-13T07:14:14.713Z,49.47
2022-09-13T07:16:42.237Z,49.46
2022-09-13T07:19:13.773Z,49.47
2022-09-13T07:21:41.308Z,49.58
2022-09-13T07:24:09.029Z,49.58
2022-09-13T07:26:37.907Z,49.63
2022-09-13T07:29:06.416Z,49.57
2022-09-13T07:31:36.420Z,49.63
2022-09-13T07:34:04.701Z,49.37
2022-09-13T07:36:33.315Z,49.67
2022-09-13T07:39:01.503Z,49.71
2022-09-13T07:41:29.634Z,49.74
2022-09-13T07:43:58.690Z,49.86
2022-09-13T07:46:27.985Z,49.67
2022-09-13T07:48:56.575Z,49.72
2022-09-13T07:51:25.468Z,49.79
2022-09-13T07:53:57.063Z,49.72
2022-09-13T07:56:25.885Z,49.77
2022-09-13T07:58:54.906Z,49.77
2022-09-13T08:01:24.503Z,49.72
2022-09-13T08:03:52.426Z,49.72
2022-09-13T08:06:19.974Z,49.76
2022-09-13T08:08:47.577Z,49.81
2022-09-13T08:11:17.325Z,50.08
2022-09-13T08:13:45.185Z,49.83
2022-09-13T08:16:12.839Z,49.90
2022-09-13T08:18:46.218Z,49.86
2022-09-13T08:21:13.783Z,50.01
2022-09-13T08:23:41.375Z,50.10
2022-09-13T08:26:09.060Z,50.08
2022-09-13T08:28:36.642Z,49.97
2022-09-13T08:31:05.778Z,50.00
2022-09-13T08:33:33.558Z,50.06
2022-09-13T08:36:02.901Z,50.02
2022-09-13T08:38:30.637Z,50.07
2022-09-13T08:40:59.257Z,50.15
2022-09-13T08:43:33.496Z,50.12
2022-09-13T08:46:02.784Z,50.15
2022-09-13T08:48:33.260Z,50.09
2022-09-13T08:51:05.014Z,50.07
2022-09-13T08:53:32.957Z,50.17
2022-09-13T08:56:03.367Z,50.17
2022-09-13T08:58:38.109Z,50.15
2022-09-13T09:01:07.770Z,49.95
2022-09-13T09:03:40.692Z,50.39
2022-09-13T09:06:13.089Z,50.34
2022-09-13T09:08:42.165Z,50.32
2022-09-13T09:11:11.907Z,50.34
2022-09-13T09:13:42.579Z,50.38
2022-09-13T09:16:17.008Z,50.31
2022-09-13T09:18:44.629Z,50.49
2022-09-13T09:21:14.878Z,50.55
2022-09-13T09:23:52.349Z,50.40
2022-09-13T09:26:20.978Z,50.51
2022-09-13T09:28:48.787Z,50.61
2022-09-13T09:31:17.539Z,50.61
2022-09-13T09:33:52.412Z,50.58
2022-09-13T09:36:25.917Z,50.59
2022-09-13T09:38:53.499Z,50.61
2022-09-13T09:41:26.980Z,50.86
2022-09-13T09:43:57.713Z,50.86
2022-09-13T09:46:27.831Z,50.73
2022-09-13T09:49:30.125Z,50.72
2022-09-13T09:52:22.464Z,50.95
2022-09-13T09:55:18.071Z,51.41
2022-09-13T09:57:53.550Z,52.40
2022-09-13T10:00:21.647Z,52.69
2022-09-13T10:02:49.690Z,53.56
2022-09-13T10:05:20.474Z,53.62
2022-09-13T10:07:55.792Z,55.61
2022-09-13T10:10:25.507Z,55.27
2022-09-13T10:12:54.149Z,56.29
2022-09-13T10:15:23.258Z,56.12
2022-09-13T10:18:26.679Z,56.12
2022-09-13T10:21:04.866Z,56.32
2022-09-13T10:23:34.325Z,55.99
2022-09-13T10:26:07.688Z,55.49
2022-09-13T10:28:36.990Z,55.55
2022-09-13T10:31:06.418Z,55.62
2022-09-13T10:33:35.848Z,55.69
2022-09-13T10:36:05.584Z,55.63
2022-09-13T10:38:35.816Z,55.39
2022-09-13T10:41:04.434Z,55.56
2022-09-13T10:43:32.639Z,55.30
2022-09-13T10:46:00.653Z,55.24
2022-09-13T10:48:29.618Z,55.09
2022-09-13T10:51:05.747Z,55.03
2022-09-13T10:54:01.613Z,55.13
2022-09-13T10:56:50.675Z,55.10
2022-09-13T10:59:22.012Z,55.04
2022-09-13T11:01:55.071Z,54.96
2022-09-13T11:04:46.953Z,54.87
2022-09-13T11:07:24.451Z,54.66
2022-09-13T11:09:55.348Z,54.76
2022-09-13T11:12:25.366Z,54.86
2022-09-13T11:15:00.084Z,54.80
2022-09-13T11:17:35.593Z,54.54
2022-09-13T11:20:27.213Z,54.44
2022-09-13T11:23:07.076Z,54.40
2022-09-13T11:25:45.743Z,54.62
2022-09-13T11:28:16.434Z,54.53
2022-09-13T11:30:51.915Z,54.49
2022-09-13T11:33:26.371Z,54.54
2022-09-13T11:36:02.551Z,54.53
2022-09-13T11:38:37.200Z,54.45
2022-09-13T11:41:12.977Z,54.39
2022-09-13T11:43:52.106Z,54.47
2022-09-13T11:46:24.835Z,54.38
2022-09-13T11:49:27.812Z,54.13
2022-09-13T11:52:00.079Z,54.40
2022-09-13T11:54:35.097Z,54.43
2022-09-13T11:57:06.150Z,54.51
2022-09-13T11:59:38.175Z,54.29
2022-09-13T12:02:14.660Z,54.45
2022-09-13T12:04:59.368Z,54.31
2022-09-13T12:07:38.332Z,54.38
2022-09-13T12:10:08.741Z,54.30
2022-09-13T12:12:37.713Z,54.29
2022-09-13T12:15:07.875Z,54.41
2022-09-13T12:17:38.435Z,54.43
2022-09-13T12:20:07.212Z,54.63
2022-09-13T12:22:35.142Z,54.49
2022-09-13T12:25:05.930Z,54.44
2022-09-13T12:27:40.120Z,54.60
2022-09-13T12:30:11.056Z,54.51
2022-09-13T12:32:38.852Z,54.34
2022-09-13T12:35:08.194Z,54.45
2022-09-13T12:37:45.294Z,54.46
2022-09-13T12:40:39.691Z,54.45
2022-09-13T12:43:21.582Z,54.17
2022-09-13T12:45:59.220Z,54.03
2022-09-13T12:48:37.173Z,54.13
2022-09-13T12:51:12.309Z,54.23
2022-09-13T12:54:25.761Z,54.06
2022-09-13T12:56:59.202Z,53.97
2022-09-13T12:59:35.755Z,53.87
2022-09-13T13:02:03.848Z,53.84
2022-09-13T13:04:32.929Z,53.94
2022-09-13T13:07:01.738Z,53.92
2022-09-13T13:09:36.498Z,53.92
2022-09-13T13:12:04.248Z,53.73
2022-09-13T13:14:53.462Z,53.55
2022-09-13T13:17:47.175Z,53.48
2022-09-13T13:20:40.788Z,53.27
2022-09-13T13:23:17.018Z,53.18
2022-09-13T13:26:00.892Z,53.15
2022-09-13T13:29:08.201Z,53.03
2022-09-13T13:31:38.712Z,52.80
2022-09-13T13:34:28.330Z,52.91
2022-09-13T13:36:58.695Z,52.85
2022-09-13T13:39:34.665Z,52.75
2022-09-13T13:42:02.957Z,52.84
2022-09-13T13:44:58.535Z,52.92
2022-09-13T13:48:03.026Z,52.81
2022-09-13T13:50:33.152Z,52.77
2022-09-13T13:53:19.938Z,52.79
2022-09-13T13:55:49.017Z,52.81
2022-09-13T13:58:39.856Z,52.72
2022-09-13T14:01:07.797Z,52.77
2022-09-13T14:03:47.825Z,52.78
2022-09-13T14:06:17.292Z,52.70
2022-09-13T14:08:51.465Z,52.58
2022-09-13T14:11:26.083Z,52.85
2022-09-13T14:14:00.842Z,52.72
2022-09-13T14:16:39.025Z,52.72
2022-09-13T14:19:26.829Z,52.75
2022-09-13T14:22:23.131Z,52.95
2022-09-13T14:24:51.398Z,52.92
2022-09-13T14:27:20.971Z,52.92
2022-09-13T14:29:49.760Z,53.06
2022-09-13T14:32:19.412Z,53.17
2022-09-13T14:34:58.278Z,53.06
2022-09-13T14:37:29.749Z,52.97
2022-09-13T14:39:58.568Z,52.91
2022-09-13T14:42:26.655Z,53.14
2022-09-13T14:44:54.332Z,53.31
2022-09-13T14:47:26.766Z,53.06
2022-09-13T14:49:56.470Z,53.25
2022-09-13T14:52:25.700Z,53.29
2022-09-13T14:54:57.130Z,53.37
2022-09-13T14:57:29.644Z,53.23
2022-09-13T15:00:01.495Z,53.44
2022-09-13T15:02:31.401Z,53.36
2022-09-13T15:04:59.965Z,53.20
2022-09-13T15:07:30.128Z,53.31
2022-09-13T15:10:00.630Z,53.30
2022-09-13T15:12:28.871Z,53.30
2022-09-13T15:15:33.256Z,53.25
2022-09-13T15:18:01.987Z,53.23
2022-09-13T15:20:30.493Z,53.02
2022-09-13T15:22:58.381Z,52.72
2022-09-13T15:25:28.232Z,52.40
2022-09-13T15:27:56.488Z,52.10
2022-09-13T15:30:26.310Z,51.91
2022-09-13T15:33:17.717Z,51.76
2022-09-13T15:35:45.848Z,51.83
2022-09-13T15:38:19.527Z,51.87
2022-09-13T15:40:49.384Z,51.90
2022-09-13T15:43:16.952Z,51.81
2022-09-13T15:45:44.490Z,51.87
2022-09-13T15:48:17.657Z,51.89
2022-09-13T15:50:45.237Z,52.10
2022-09-13T15:53:13.387Z,52.04
2022-09-13T15:55:41.665Z,52.23
2022-09-13T15:58:11.075Z,52.26
2022-09-13T16:00:38.683Z,52.44
2022-09-13T16:03:06.250Z,52.49
2022-09-13T16:05:33.949Z,52.41
2022-09-13T16:08:01.569Z,52.67
2022-09-13T16:10:29.189Z,52.80
2022-09-13T16:12:56.749Z,52.77
2022-09-13T16:15:25.624Z,52.79
2022-09-13T16:17:53.270Z,52.99
2022-09-13T16:20:21.413Z,53.16
2022-09-13T16:22:48.943Z,53.40
2022-09-13T16:25:16.747Z,53.56
2022-09-13T16:27:44.733Z,53.42
2022-09-13T16:30:13.219Z,53.38
2022-09-13T16:32:42.301Z,53.58
2022-09-13T16:35:10.157Z,53.50
2022-09-13T16:37:37.705Z,53.63
2022-09-13T16:40:05.831Z,53.71
2022-09-13T16:42:34.045Z,53.99
2022-09-13T16:45:01.580Z,54.03
2022-09-13T16:47:29.126Z,53.78
2022-09-13T16:49:58.020Z,53.67
2022-09-13T16:52:25.681Z,53.63
2022-09-13T16:54:53.339Z,53.49
2022-09-13T16:57:20.933Z,53.41
2022-09-13T16:59:48.511Z,53.25
2022-09-13T17:02:16.189Z,53.09
2022-09-13T17:04:43.938Z,52.87
2022-09-13T17:07:13.261Z,52.83
2022-09-13T17:09:40.896Z,52.57
2022-09-13T17:12:09.080Z,52.35
2022-09-13T17:14:36.695Z,52.40
2022-09-13T17:17:04.509Z,52.27
2022-09-13T17:19:33.961Z,52.34
2022-09-13T17:22:01.968Z,52.27
2022-09-13T17:24:31.385Z,52.19
2022-09-13T17:26:59.183Z,52.24
2022-09-13T17:29:30.731Z,52.33
2022-09-13T17:31:58.345Z,52.10
2022-09-13T17:34:26.059Z,51.97
2022-09-13T17:36:53.697Z,52.17
2022-09-13T17:39:21.637Z,52.10
2022-09-13T17:41:51.347Z,51.98
2022-09-13T17:44:19.035Z,51.99
2022-09-13T17:46:46.668Z,52.17
2022-09-13T17:49:14.310Z,52.08
2022-09-13T17:51:41.893Z,52.40
2022-09-13T17:54:10.817Z,52.02
2022-09-13T17:56:39.237Z,51.78
2022-09-13T17:59:10.308Z,51.84
2022-09-13T18:01:39.223Z,51.67
2022-09-13T18:04:07.731Z,51.77
2022-09-13T18:06:35.452Z,51.33
2022-09-13T18:09:03.038Z,51.11
2022-09-13T18:11:30.593Z,51.01
2022-09-13T18:13:58.122Z,51.20
2022-09-13T18:16:28.419Z,50.92
2022-09-13T18:18:56.141Z,50.95
2022-09-13T18:21:25.155Z,50.98
2022-09-13T18:23:57.976Z,51.10
2022-09-13T18:26:26.485Z,51.03
2022-09-13T18:28:55.805Z,50.83
2022-09-13T18:31:23.983Z,50.96
2022-09-13T18:33:56.724Z,50.68
2022-09-13T18:36:24.336Z,50.77
2022-09-13T18:38:53.122Z,50.56
2022-09-13T18:41:21.556Z,50.90
2022-09-13T18:43:54.971Z,50.62
2022-09-13T18:46:24.697Z,50.56
2022-09-13T18:48:54.122Z,50.91
2022-09-13T18:51:24.034Z,50.76
2022-09-13T18:53:51.676Z,50.79
2022-09-13T18:56:21.058Z,51.43
2022-09-13T18:58:48.744Z,50.82
2022-09-13T19:01:17.407Z,50.44
2022-09-13T19:03:48.596Z,50.64
2022-09-13T19:06:17.177Z,50.40
2022-09-13T19:08:46.890Z,50.70
2022-09-13T19:11:35.270Z,50.59
2022-09-13T19:14:02.649Z,50.69
2022-09-13T19:16:30.265Z,50.41
2022-09-13T19:18:58.122Z,50.49
2022-09-13T19:21:27.348Z,50.55
2022-09-13T19:24:00.046Z,50.33
2022-09-13T19:26:29.417Z,50.39
2022-09-13T19:28:59.440Z,50.59
2022-09-13T19:31:28.009Z,50.33
2022-09-13T19:33:56.178Z,50.54
2022-09-13T19:36:24.599Z,50.56
2022-09-13T19:38:52.257Z,50.70
2022-09-13T19:41:23.518Z,50.58
2022-09-13T19:43:51.389Z,50.56
2022-09-13T19:46:20.795Z,50.51
2022-09-13T19:48:49.217Z,50.32
2022-09-13T19:51:18.316Z,50.33
2022-09-13T19:53:56.796Z,50.40
2022-09-13T19:56:27.595Z,50.40
2022-09-13T19:58:55.210Z,50.52
2022-09-13T20:01:23.793Z,50.37
2022-09-13T20:03:52.210Z,50.38
2022-09-13T20:06:19.959Z,50.56
2022-09-13T20:08:47.808Z,50.24
2022-09-13T20:11:16.058Z,50.31
2022-09-13T20:13:45.360Z,50.32
2022-09-13T20:16:13.586Z,50.52
2022-09-13T20:18:41.244Z,50.35
2022-09-13T20:21:09.430Z,50.37
2022-09-13T20:23:37.606Z,50.16
2022-09-13T20:26:05.988Z,50.57
2022-09-13T20:28:34.315Z,50.21
2022-09-13T20:31:03.449Z,50.41
2022-09-13T20:33:31.100Z,50.53
2022-09-13T20:35:58.689Z,50.47
2022-09-13T20:38:26.277Z,50.52
2022-09-13T20:40:54.332Z,50.25
2022-09-13T20:43:21.917Z,49.92
2022-09-13T20:45:56.775Z,50.07
2022-09-13T20:48:25.749Z,50.21
2022-09-13T20:50:57.495Z,50.53
2022-09-13T20:53:25.022Z,50.46
2022-09-13T20:55:53.095Z,50.59
2022-09-13T20:58:20.877Z,50.66
2022-09-13T21:00:48.762Z,50.42
2022-09-13T21:03:16.511Z,50.39
2022-09-13T21:05:45.434Z,50.64
2022-09-13T21:08:33.073Z,50.47
2022-09-13T21:11:03.493Z,50.43
2022-09-13T21:13:31.058Z,50.83
2022-09-13T21:16:03.164Z,51.03
2022-09-13T21:18:31.236Z,51.16
2022-09-13T21:21:01.002Z,51.40
2022-09-13T21:23:28.933Z,51.60
2022-09-13T21:25:56.755Z,51.66
2022-09-13T21:28:24.277Z,51.65
2022-09-13T21:30:58.991Z,51.72
2022-09-13T21:33:26.616Z,51.89
2022-09-13T21:35:56.842Z,51.85
2022-09-13T21:38:27.413Z,52.08
2022-09-13T21:40:55.649Z,52.08
2022-09-13T21:43:23.301Z,52.32
2022-09-13T21:45:50.889Z,52.25
2022-09-13T21:48:18.411Z,52.26
2022-09-13T21:50:45.944Z,52.17
2022-09-13T21:53:13.633Z,52.56
2022-09-13T21:55:42.655Z,53.05
2022-09-13T21:58:11.281Z,52.87
2022-09-13T22:00:39.893Z,52.50
2022-09-13T22:03:09.273Z,52.76
2022-09-13T22:05:36.813Z,52.70
2022-09-13T22:08:04.368Z,52.86
2022-09-13T22:10:31.908Z,52.96
2022-09-13T22:13:00.946Z,52.94
2022-09-13T22:15:28.489Z,52.77
2022-09-13T22:17:56.032Z,53.00
2022-09-13T22:20:23.571Z,53.10
2022-09-13T22:22:51.168Z,53.33
2022-09-13T22:25:18.702Z,53.18
2022-09-13T22:27:46.256Z,53.70
2022-09-13T22:30:15.544Z,53.32
2022-09-13T22:32:43.057Z,53.25
2022-09-13T22:35:10.620Z,53.89
2022-09-13T22:37:38.167Z,53.94
2022-09-13T22:40:06.648Z,53.37
2022-09-13T22:42:34.201Z,53.49
2022-09-13T22:45:01.717Z,53.33
2022-09-13T22:47:30.601Z,53.69
2022-09-13T22:49:58.138Z,54.21
2022-09-13T22:52:25.689Z,53.30
2022-09-13T22:54:53.227Z,53.58
2022-09-13T22:57:20.843Z,53.67
2022-09-13T22:59:48.389Z,53.94
2022-09-13T23:02:15.924Z,53.62
2022-09-13T23:04:44.802Z,53.50
2022-09-13T23:07:12.401Z,53.78
2022-09-13T23:09:39.970Z,53.62
2022-09-13T23:12:07.799Z,53.40
2022-09-13T23:14:35.346Z,53.73
2022-09-13T23:17:02.971Z,54.06
2022-09-13T23:19:30.592Z,53.60
2022-09-13T23:21:59.457Z,53.52
2022-09-13T23:24:27.003Z,53.65
2022-09-13T23:26:55.009Z,53.47
2022-09-13T23:29:23.124Z,53.83
2022-09-13T23:31:51.815Z,53.32
2022-09-13T23:34:19.506Z,53.60
2022-09-13T23:36:47.266Z,53.69
2022-09-13T23:39:17.424Z,53.34
2022-09-13T23:41:45.397Z,54.20
2022-09-13T23:44:13.002Z,53.43
2022-09-13T23:46:40.550Z,53.52
2022-09-13T23:49:08.125Z,53.44
2022-09-13T23:51:35.677Z,53.51
2022-09-13T23:54:03.613Z,54.14
2022-09-13T23:56:33.011Z,53.52
2022-09-13T23:59:01.285Z,53.61
